sensor_id;sensor_type;location;lat;lon;timestamp;pressure;altitude;pressure_sealevel;temperature;humidity
72465;BME280;60471;52.150;4.508;2022-09-28T00:01:15;99339.78;;;8.86;84.44
72465;BME280;60471;52.150;4.508;2022-09-28T00:03:47;99346.53;;;8.90;84.11
72465;BME280;60471;52.150;4.508;2022-09-28T00:06:18;99354.09;;;8.82;84.40
72465;BME280;60471;52.150;4.508;2022-09-28T00:08:49;99373.88;;;8.87;83.71
72465;BME280;60471;52.150;4.508;2022-09-28T00:11:17;99382.34;;;8.92;85.46
72465;BME280;60471;52.150;4.508;2022-09-28T00:13:51;99369.28;;;8.91;86.28
72465;BME280;60471;52.150;4.508;2022-09-28T00:16:24;99391.22;;;9.04;86.78
72465;BME280;60471;52.150;4.508;2022-09-28T00:18:52;99382.44;;;9.18;86.71
72465;BME280;60471;52.150;4.508;2022-09-28T00:21:21;99369.38;;;9.16;83.46
72465;BME280;60471;52.150;4.508;2022-09-28T00:23:52;99360.66;;;9.28;82.46
72465;BME280;60471;52.150;4.508;2022-09-28T00:26:49;99372.00;;;9.16;82.56
72465;BME280;60471;52.150;4.508;2022-09-28T00:29:24;99343.97;;;9.03;82.78
72465;BME280;60471;52.150;4.508;2022-09-28T00:31:54;99348.66;;;8.97;81.82
72465;BME280;60471;52.150;4.508;2022-09-28T00:34:35;99361.72;;;8.99;81.46
72465;BME280;60471;52.150;4.508;2022-09-28T00:37:08;99371.72;;;8.94;83.09
72465;BME280;60471;52.150;4.508;2022-09-28T00:39:35;99352.59;;;9.05;82.04
72465;BME280;60471;52.150;4.508;2022-09-28T00:42:10;99348.41;;;9.02;82.78
72465;BME280;60471;52.150;4.508;2022-09-28T00:44:47;99344.41;;;9.09;82.63
72465;BME280;60471;52.150;4.508;2022-09-28T00:50:23;99341.97;;;9.06;84.07
72465;BME280;60471;52.150;4.508;2022-09-28T00:53:13;99348.78;;;8.96;84.81
72465;BME280;60471;52.150;4.508;2022-09-28T00:55:49;99351.25;;;8.85;85.48
72465;BME280;60471;52.150;4.508;2022-09-28T00:58:31;99352.84;;;8.87;85.46
72465;BME280;60471;52.150;4.508;2022-09-28T01:00:59;99350.88;;;8.91;84.27
72465;BME280;60471;52.150;4.508;2022-09-28T01:03:26;99346.22;;;8.82;84.70
72465;BME280;60471;52.150;4.508;2022-09-28T01:05:55;99347.03;;;8.82;84.99
72465;BME280;60471;52.150;4.508;2022-09-28T01:08:25;99331.47;;;8.79;84.84
72465;BME280;60471;52.150;4.508;2022-09-28T01:10:52;99328.44;;;8.85;85.51
72465;BME280;60471;52.150;4.508;2022-09-28T01:13:19;99336.13;;;8.88;84.66
72465;BME280;60471;52.150;4.508;2022-09-28T01:16:05;99339.69;;;8.87;84.82
72465;BME280;60471;52.150;4.508;2022-09-28T01:25:40;99359.09;;;8.99;84.73
72465;BME280;60471;52.150;4.508;2022-09-28T01:28:18;99353.41;;;8.92;85.60
72465;BME280;60471;52.150;4.508;2022-09-28T01:31:09;99345.31;;;8.95;86.02
72465;BME280;60471;52.150;4.508;2022-09-28T01:33:49;99341.47;;;9.14;84.98
72465;BME280;60471;52.150;4.508;2022-09-28T01:36:24;99335.97;;;9.04;85.05
72465;BME280;60471;52.150;4.508;2022-09-28T01:39:02;99335.47;;;9.12;85.40
72465;BME280;60471;52.150;4.508;2022-09-28T01:41:43;99331.97;;;9.11;85.23
72465;BME280;60471;52.150;4.508;2022-09-28T01:44:16;99364.81;;;9.06;85.74
72465;BME280;60471;52.150;4.508;2022-09-28T01:46:47;99365.09;;;9.28;84.68
72465;BME280;60471;52.150;4.508;2022-09-28T01:49:21;99357.72;;;9.33;84.76
72465;BME280;60471;52.150;4.508;2022-09-28T01:54:39;99364.06;;;9.43;85.23
72465;BME280;60471;52.150;4.508;2022-09-28T01:57:25;99367.47;;;9.58;85.42
72465;BME280;60471;52.150;4.508;2022-09-28T02:00:03;99353.97;;;9.50;86.29
72465;BME280;60471;52.150;4.508;2022-09-28T02:02:36;99350.06;;;9.43;86.25
72465;BME280;60471;52.150;4.508;2022-09-28T02:05:12;99339.44;;;9.44;86.50
72465;BME280;60471;52.150;4.508;2022-09-28T02:07:47;99345.22;;;9.49;86.14
72465;BME280;60471;52.150;4.508;2022-09-28T02:10:33;99345.63;;;9.43;86.03
72465;BME280;60471;52.150;4.508;2022-09-28T02:13:32;99348.50;;;9.66;85.34
72465;BME280;60471;52.150;4.508;2022-09-28T02:16:05;99349.22;;;9.55;85.39
72465;BME280;60471;52.150;4.508;2022-09-28T02:18:39;99354.19;;;9.59;86.21
72465;BME280;60471;52.150;4.508;2022-09-28T02:21:22;99358.63;;;9.72;85.39
72465;BME280;60471;52.150;4.508;2022-09-28T02:23:56;99362.84;;;9.74;85.02
72465;BME280;60471;52.150;4.508;2022-09-28T02:26:34;99352.53;;;9.71;84.49
72465;BME280;60471;52.150;4.508;2022-09-28T02:29:05;99355.38;;;9.68;84.60
72465;BME280;60471;52.150;4.508;2022-09-28T02:31:31;99348.94;;;9.72;82.74
72465;BME280;60471;52.150;4.508;2022-09-28T02:33:57;99344.28;;;9.63;84.29
72465;BME280;60471;52.150;4.508;2022-09-28T02:36:25;99350.84;;;9.70;84.76
72465;BME280;60471;52.150;4.508;2022-09-28T02:38:53;99345.06;;;9.78;85.01
72465;BME280;60471;52.150;4.508;2022-09-28T02:41:26;99342.00;;;10.09;82.29
72465;BME280;60471;52.150;4.508;2022-09-28T02:44:16;99344.09;;;9.92;81.88
72465;BME280;60471;52.150;4.508;2022-09-28T02:50:38;99354.09;;;9.74;83.11
72465;BME280;60471;52.150;4.508;2022-09-28T02:56:56;99356.22;;;9.69;82.93
72465;BME280;60471;52.150;4.508;2022-09-28T02:59:49;99353.69;;;9.93;80.61
72465;BME280;60471;52.150;4.508;2022-09-28T03:02:29;99364.75;;;9.72;81.84
72465;BME280;60471;52.150;4.508;2022-09-28T03:05:19;99366.19;;;9.64;83.15
72465;BME280;60471;52.150;4.508;2022-09-28T03:07:58;99364.94;;;9.56;84.22
72465;BME280;60471;52.150;4.508;2022-09-28T03:13:04;99369.56;;;9.66;85.41
72465;BME280;60471;52.150;4.508;2022-09-28T03:15:33;99365.38;;;9.76;85.34
72465;BME280;60471;52.150;4.508;2022-09-28T03:18:00;99364.84;;;9.83;84.96
72465;BME280;60471;52.150;4.508;2022-09-28T03:20:28;99363.50;;;9.78;85.19
72465;BME280;60471;52.150;4.508;2022-09-28T03:22:56;99355.69;;;9.89;85.46
72465;BME280;60471;52.150;4.508;2022-09-28T03:25:23;99362.31;;;9.95;85.24
72465;BME280;60471;52.150;4.508;2022-09-28T03:27:49;99362.09;;;9.98;85.39
72465;BME280;60471;52.150;4.508;2022-09-28T03:30:15;99358.31;;;10.02;84.87
72465;BME280;60471;52.150;4.508;2022-09-28T03:32:42;99363.16;;;9.95;84.01
72465;BME280;60471;52.150;4.508;2022-09-28T03:35:09;99365.41;;;9.88;83.56
72465;BME280;60471;52.150;4.508;2022-09-28T03:37:36;99354.84;;;10.01;81.91
72465;BME280;60471;52.150;4.508;2022-09-28T03:40:04;99364.34;;;9.91;83.26
72465;BME280;60471;52.150;4.508;2022-09-28T03:42:31;99362.44;;;9.68;83.40
72465;BME280;60471;52.150;4.508;2022-09-28T03:44:59;99354.59;;;9.53;84.08
72465;BME280;60471;52.150;4.508;2022-09-28T03:47:26;99349.44;;;9.39;84.10
72465;BME280;60471;52.150;4.508;2022-09-28T03:49:52;99353.47;;;9.18;84.88
72465;BME280;60471;52.150;4.508;2022-09-28T03:52:18;99356.81;;;9.07;85.22
72465;BME280;60471;52.150;4.508;2022-09-28T03:54:44;99357.31;;;8.99;85.95
72465;BME280;60471;52.150;4.508;2022-09-28T03:57:10;99349.56;;;8.84;86.03
72465;BME280;60471;52.150;4.508;2022-09-28T03:59:36;99357.16;;;8.88;85.91
72465;BME280;60471;52.150;4.508;2022-09-28T04:02:04;99357.38;;;8.85;86.12
72465;BME280;60471;52.150;4.508;2022-09-28T04:04:30;99361.88;;;8.83;86.92
72465;BME280;60471;52.150;4.508;2022-09-28T04:06:57;99353.56;;;8.89;86.88
72465;BME280;60471;52.150;4.508;2022-09-28T04:09:24;99359.09;;;8.99;86.97
72465;BME280;60471;52.150;4.508;2022-09-28T04:11:50;99362.41;;;8.88;87.38
72465;BME280;60471;52.150;4.508;2022-09-28T04:14:16;99356.13;;;8.91;87.35
72465;BME280;60471;52.150;4.508;2022-09-28T04:16:42;99357.63;;;8.95;87.23
72465;BME280;60471;52.150;4.508;2022-09-28T04:19:08;99354.53;;;8.88;86.83
72465;BME280;60471;52.150;4.508;2022-09-28T04:21:36;99364.09;;;8.89;87.45
72465;BME280;60471;52.150;4.508;2022-09-28T04:24:03;99362.66;;;8.98;86.19
72465;BME280;60471;52.150;4.508;2022-09-28T04:26:29;99362.06;;;9.07;86.26
72465;BME280;60471;52.150;4.508;2022-09-28T04:28:55;99363.88;;;9.07;85.87
72465;BME280;60471;52.150;4.508;2022-09-28T04:31:51;99371.91;;;9.18;85.07
72465;BME280;60471;52.150;4.508;2022-09-28T04:34:22;99374.03;;;9.25;83.99
72465;BME280;60471;52.150;4.508;2022-09-28T04:36:48;99378.03;;;9.31;83.12
72465;BME280;60471;52.150;4.508;2022-09-28T04:39:15;99383.81;;;9.23;83.81
72465;BME280;60471;52.150;4.508;2022-09-28T04:41:46;99388.66;;;9.29;84.25
72465;BME280;60471;52.150;4.508;2022-09-28T04:44:13;99386.16;;;9.28;83.76
72465;BME280;60471;52.150;4.508;2022-09-28T04:46:39;99391.03;;;9.34;82.53
72465;BME280;60471;52.150;4.508;2022-09-28T04:49:05;99390.50;;;9.54;82.55
72465;BME280;60471;52.150;4.508;2022-09-28T04:51:31;99380.63;;;9.45;82.67
72465;BME280;60471;52.150;4.508;2022-09-28T04:53:58;99377.03;;;9.34;83.80
72465;BME280;60471;52.150;4.508;2022-09-28T04:56:24;99369.84;;;9.36;84.25
72465;BME280;60471;52.150;4.508;2022-09-28T04:58:50;99365.72;;;9.32;84.25
72465;BME280;60471;52.150;4.508;2022-09-28T05:01:18;99366.78;;;9.29;84.44
72465;BME280;60471;52.150;4.508;2022-09-28T05:03:48;99366.50;;;9.34;84.91
72465;BME280;60471;52.150;4.508;2022-09-28T05:06:15;99361.25;;;9.46;84.28
72465;BME280;60471;52.150;4.508;2022-09-28T05:08:42;99362.47;;;9.41;84.44
72465;BME280;60471;52.150;4.508;2022-09-28T05:11:12;99372.16;;;9.40;85.03
72465;BME280;60471;52.150;4.508;2022-09-28T05:13:43;99380.56;;;9.33;85.91
72465;BME280;60471;52.150;4.508;2022-09-28T05:16:11;99373.72;;;9.30;86.72
72465;BME280;60471;52.150;4.508;2022-09-28T05:18:38;99375.13;;;9.36;86.22
72465;BME280;60471;52.150;4.508;2022-09-28T05:21:10;99371.41;;;9.25;86.89
72465;BME280;60471;52.150;4.508;2022-09-28T05:23:38;99368.94;;;9.22;86.41
72465;BME280;60471;52.150;4.508;2022-09-28T05:26:05;99364.63;;;9.21;86.65
72465;BME280;60471;52.150;4.508;2022-09-28T05:28:32;99370.66;;;9.23;85.79
72465;BME280;60471;52.150;4.508;2022-09-28T05:31:03;99369.91;;;9.21;85.84
72465;BME280;60471;52.150;4.508;2022-09-28T05:33:31;99374.22;;;9.22;86.01
72465;BME280;60471;52.150;4.508;2022-09-28T05:35:59;99390.66;;;9.26;85.61
72465;BME280;60471;52.150;4.508;2022-09-28T05:38:25;99397.44;;;9.43;86.14
72465;BME280;60471;52.150;4.508;2022-09-28T05:40:51;99393.19;;;9.67;85.06
72465;BME280;60471;52.150;4.508;2022-09-28T05:43:17;99383.19;;;9.72;85.38
72465;BME280;60471;52.150;4.508;2022-09-28T05:45:44;99383.91;;;9.74;85.78
72465;BME280;60471;52.150;4.508;2022-09-28T05:48:10;99376.66;;;10.03;82.26
72465;BME280;60471;52.150;4.508;2022-09-28T05:50:36;99370.56;;;10.03;80.32
72465;BME280;60471;52.150;4.508;2022-09-28T05:53:04;99366.88;;;9.80;82.16
72465;BME280;60471;52.150;4.508;2022-09-28T05:55:34;99363.69;;;9.75;83.00
72465;BME280;60471;52.150;4.508;2022-09-28T05:58:03;99366.13;;;9.78;84.14
72465;BME280;60471;52.150;4.508;2022-09-28T06:00:32;99363.38;;;9.79;84.04
72465;BME280;60471;52.150;4.508;2022-09-28T06:03:10;99364.53;;;9.75;84.42
72465;BME280;60471;52.150;4.508;2022-09-28T06:05:39;99364.75;;;9.98;83.34
72465;BME280;60471;52.150;4.508;2022-09-28T06:08:07;99364.94;;;10.07;81.35
72465;BME280;60471;52.150;4.508;2022-09-28T06:10:35;99373.28;;;10.01;82.54
72465;BME280;60471;52.150;4.508;2022-09-28T06:13:01;99375.28;;;9.98;82.99
72465;BME280;60471;52.150;4.508;2022-09-28T06:15:29;99380.88;;;9.93;82.78
72465;BME280;60471;52.150;4.508;2022-09-28T06:17:58;99378.88;;;9.84;83.35
72465;BME280;60471;52.150;4.508;2022-09-28T06:20:26;99384.34;;;9.81;83.43
72465;BME280;60471;52.150;4.508;2022-09-28T06:22:54;99385.09;;;9.70;84.44
72465;BME280;60471;52.150;4.508;2022-09-28T06:25:22;99398.88;;;9.74;84.53
72465;BME280;60471;52.150;4.508;2022-09-28T06:28:15;99399.22;;;9.95;84.69
72465;BME280;60471;52.150;4.508;2022-09-28T06:30:42;99398.38;;;10.07;84.76
72465;BME280;60471;52.150;4.508;2022-09-28T06:33:11;99403.13;;;10.14;84.53
72465;BME280;60471;52.150;4.508;2022-09-28T06:35:39;99403.56;;;10.21;84.25
72465;BME280;60471;52.150;4.508;2022-09-28T06:38:06;99400.25;;;10.17;84.34
72465;BME280;60471;52.150;4.508;2022-09-28T06:40:33;99403.25;;;10.26;85.05
72465;BME280;60471;52.150;4.508;2022-09-28T06:43:05;99397.47;;;10.33;84.16
72465;BME280;60471;52.150;4.508;2022-09-28T06:45:41;99394.63;;;10.24;84.88
72465;BME280;60471;52.150;4.508;2022-09-28T06:48:09;99395.44;;;10.37;84.10
72465;BME280;60471;52.150;4.508;2022-09-28T06:50:38;99394.03;;;10.57;82.96
72465;BME280;60471;52.150;4.508;2022-09-28T06:53:07;99389.91;;;10.53;83.46
72465;BME280;60471;52.150;4.508;2022-09-28T06:55:44;99392.00;;;10.60;83.46
72465;BME280;60471;52.150;4.508;2022-09-28T06:58:16;99401.66;;;10.85;82.46
72465;BME280;60471;52.150;4.508;2022-09-28T07:00:45;99393.84;;;10.84;82.47
72465;BME280;60471;52.150;4.508;2022-09-28T07:03:15;99407.41;;;11.03;81.99
72465;BME280;60471;52.150;4.508;2022-09-28T07:05:44;99396.91;;;10.90;82.11
72465;BME280;60471;52.150;4.508;2022-09-28T07:08:14;99411.13;;;11.00;82.03
72465;BME280;60471;52.150;4.508;2022-09-28T07:10:43;99403.03;;;10.91;82.17
72465;BME280;60471;52.150;4.508;2022-09-28T07:13:12;99410.31;;;10.87;82.61
72465;BME280;60471;52.150;4.508;2022-09-28T07:15:39;99406.38;;;11.17;81.33
72465;BME280;60471;52.150;4.508;2022-09-28T07:18:06;99407.47;;;11.14;80.94
72465;BME280;60471;52.150;4.508;2022-09-28T07:20:34;99406.50;;;11.39;80.31
72465;BME280;60471;52.150;4.508;2022-09-28T07:23:03;99419.41;;;11.55;78.85
72465;BME280;60471;52.150;4.508;2022-09-28T07:25:31;99417.66;;;11.31;79.30
72465;BME280;60471;52.150;4.508;2022-09-28T07:27:58;99421.25;;;11.66;78.76
72465;BME280;60471;52.150;4.508;2022-09-28T07:30:26;99424.53;;;11.45;80.36
72465;BME280;60471;52.150;4.508;2022-09-28T07:32:54;99428.38;;;11.41;81.33
72465;BME280;60471;52.150;4.508;2022-09-28T07:35:20;99420.25;;;11.79;80.29
72465;BME280;60471;52.150;4.508;2022-09-28T07:37:47;99426.25;;;11.81;80.57
72465;BME280;60471;52.150;4.508;2022-09-28T07:40:13;99425.28;;;12.29;80.08
72465;BME280;60471;52.150;4.508;2022-09-28T07:43:07;99430.75;;;12.03;79.65
72465;BME280;60471;52.150;4.508;2022-09-28T07:45:33;99428.69;;;11.84;80.09
72465;BME280;60471;52.150;4.508;2022-09-28T07:48:03;99437.13;;;12.01;79.94
72465;BME280;60471;52.150;4.508;2022-09-28T07:50:30;99434.25;;;12.04;79.62
72465;BME280;60471;52.150;4.508;2022-09-28T07:52:57;99434.75;;;12.09;79.67
72465;BME280;60471;52.150;4.508;2022-09-28T07:55:23;99430.59;;;11.94;79.90
72465;BME280;60471;52.150;4.508;2022-09-28T07:57:57;99442.28;;;12.02;78.81
72465;BME280;60471;52.150;4.508;2022-09-28T08:00:27;99442.72;;;12.31;77.95
72465;BME280;60471;52.150;4.508;2022-09-28T08:02:58;99447.47;;;12.15;76.95
72465;BME280;60471;52.150;4.508;2022-09-28T08:05:25;99454.59;;;12.37;76.06
72465;BME280;60471;52.150;4.508;2022-09-28T08:07:56;99440.53;;;12.59;75.49
72465;BME280;60471;52.150;4.508;2022-09-28T08:10:27;99451.88;;;12.83;75.58
72465;BME280;60471;52.150;4.508;2022-09-28T08:12:57;99450.66;;;12.76;75.49
72465;BME280;60471;52.150;4.508;2022-09-28T08:15:31;99455.25;;;12.63;74.94
72465;BME280;60471;52.150;4.508;2022-09-28T08:18:03;99455.66;;;13.24;73.06
72465;BME280;60471;52.150;4.508;2022-09-28T08:20:30;99458.88;;;13.39;72.33
72465;BME280;60471;52.150;4.508;2022-09-28T08:23:16;99454.59;;;13.26;72.10
72465;BME280;60471;52.150;4.508;2022-09-28T08:25:47;99460.53;;;13.51;71.16
72465;BME280;60471;52.150;4.508;2022-09-28T08:28:15;99464.88;;;14.05;69.86
72465;BME280;60471;52.150;4.508;2022-09-28T08:30:43;99460.25;;;13.86;70.39
72465;BME280;60471;52.150;4.508;2022-09-28T08:33:12;99470.63;;;14.31;70.13
72465;BME280;60471;52.150;4.508;2022-09-28T08:35:39;99468.34;;;13.84;68.25
72465;BME280;60471;52.150;4.508;2022-09-28T08:38:08;99466.34;;;13.98;68.26
72465;BME280;60471;52.150;4.508;2022-09-28T08:41:01;99483.25;;;13.64;68.51
72465;BME280;60471;52.150;4.508;2022-09-28T08:44:07;99475.41;;;13.09;70.23
72465;BME280;60471;52.150;4.508;2022-09-28T08:46:51;99473.38;;;12.78;72.64
72465;BME280;60471;52.150;4.508;2022-09-28T08:49:28;99479.75;;;12.54;73.96
72465;BME280;60471;52.150;4.508;2022-09-28T08:52:05;99478.66;;;12.34;74.11
72465;BME280;60471;52.150;4.508;2022-09-28T08:57:21;99483.66;;;12.14;74.23
72465;BME280;60471;52.150;4.508;2022-09-28T08:59:56;99490.91;;;12.24;74.79
72465;BME280;60471;52.150;4.508;2022-09-28T09:02:29;99492.88;;;12.44;74.27
72465;BME280;60471;52.150;4.508;2022-09-28T09:05:08;99497.31;;;12.55;74.92
72465;BME280;60471;52.150;4.508;2022-09-28T09:08:06;99498.41;;;12.63;75.02
72465;BME280;60471;52.150;4.508;2022-09-28T09:10:56;99503.00;;;12.95;75.42
72465;BME280;60471;52.150;4.508;2022-09-28T09:14:11;99497.19;;;13.34;73.01
72465;BME280;60471;52.150;4.508;2022-09-28T09:17:12;99494.81;;;12.75;73.60
72465;BME280;60471;52.150;4.508;2022-09-28T09:25:19;99503.00;;;12.95;72.05
72465;BME280;60471;52.150;4.508;2022-09-28T09:30:57;99495.56;;;13.54;71.15
72465;BME280;60471;52.150;4.508;2022-09-28T09:39:18;99503.19;;;14.12;67.61
72465;BME280;60471;52.150;4.508;2022-09-28T09:47:54;99491.16;;;15.99;63.42
72465;BME280;60471;52.150;4.508;2022-09-28T09:53:01;99498.66;;;16.52;59.06
72465;BME280;60471;52.150;4.508;2022-09-28T09:55:43;99499.81;;;17.87;54.05
72465;BME280;60471;52.150;4.508;2022-09-28T09:58:16;99491.66;;;17.88;54.76
72465;BME280;60471;52.150;4.508;2022-09-28T10:00:51;99496.75;;;17.36;54.10
72465;BME280;60471;52.150;4.508;2022-09-28T10:03:28;99490.53;;;17.63;54.42
72465;BME280;60471;52.150;4.508;2022-09-28T10:06:00;99498.81;;;17.43;54.41
72465;BME280;60471;52.150;4.508;2022-09-28T10:08:39;99496.69;;;17.46;54.55
72465;BME280;60471;52.150;4.508;2022-09-28T10:11:16;99506.94;;;18.22;52.44
72465;BME280;60471;52.150;4.508;2022-09-28T10:13:52;99496.97;;;19.02;50.52
72465;BME280;60471;52.150;4.508;2022-09-28T10:16:19;99500.66;;;18.49;51.64
72465;BME280;60471;52.150;4.508;2022-09-28T10:18:46;99498.28;;;18.02;53.27
72465;BME280;60471;52.150;4.508;2022-09-28T10:21:16;99497.16;;;18.31;52.31
72465;BME280;60471;52.150;4.508;2022-09-28T10:23:45;99494.78;;;17.84;51.75
72465;BME280;60471;52.150;4.508;2022-09-28T10:26:22;99499.13;;;17.39;52.38
72465;BME280;60471;52.150;4.508;2022-09-28T10:28:55;99508.03;;;16.37;55.38
72465;BME280;60471;52.150;4.508;2022-09-28T10:34:04;99508.22;;;16.16;57.30
72465;BME280;60471;52.150;4.508;2022-09-28T10:36:33;99510.03;;;16.15;57.16
72465;BME280;60471;52.150;4.508;2022-09-28T10:39:36;99515.69;;;15.33;59.02
72465;BME280;60471;52.150;4.508;2022-09-28T10:42:11;99507.03;;;15.51;58.13
72465;BME280;60471;52.150;4.508;2022-09-28T10:45:02;99509.53;;;14.93;59.69
72465;BME280;60471;52.150;4.508;2022-09-28T10:47:32;99510.91;;;14.87;61.31
72465;BME280;60471;52.150;4.508;2022-09-28T10:50:00;99509.81;;;14.90;61.51
72465;BME280;60471;52.150;4.508;2022-09-28T10:57:51;99502.22;;;14.85;61.16
72465;BME280;60471;52.150;4.508;2022-09-28T11:00:38;99506.75;;;14.22;63.81
72465;BME280;60471;52.150;4.508;2022-09-28T11:03:24;99506.34;;;14.27;64.36
72465;BME280;60471;52.150;4.508;2022-09-28T11:05:57;99509.56;;;14.09;64.55
72465;BME280;60471;52.150;4.508;2022-09-28T11:08:35;99514.25;;;14.17;65.72
72465;BME280;60471;52.150;4.508;2022-09-28T11:11:14;99518.44;;;13.55;67.64
72465;BME280;60471;52.150;4.508;2022-09-28T11:13:54;99512.53;;;13.95;67.12
72465;BME280;60471;52.150;4.508;2022-09-28T11:16:31;99512.56;;;14.37;65.83
72465;BME280;60471;52.150;4.508;2022-09-28T11:21:45;99507.84;;;14.61;64.22
72465;BME280;60471;52.150;4.508;2022-09-28T11:26:43;99503.06;;;21.32;46.41
72465;BME280;60471;52.150;4.508;2022-09-28T11:29:34;99503.81;;;23.37;42.08
72465;BME280;60471;52.150;4.508;2022-09-28T11:32:04;99499.28;;;24.16;36.17
72465;BME280;60471;52.150;4.508;2022-09-28T11:34:35;99494.69;;;24.94;34.11
72465;BME280;60471;52.150;4.508;2022-09-28T11:46:46;99483.97;;;27.27;29.86
72465;BME280;60471;52.150;4.508;2022-09-28T11:49:37;99486.03;;;25.47;32.92
72465;BME280;60471;52.150;4.508;2022-09-28T11:52:25;99489.34;;;28.10;29.16
72465;BME280;60471;52.150;4.508;2022-09-28T11:55:17;99488.69;;;25.94;32.60
72465;BME280;60471;52.150;4.508;2022-09-28T11:57:55;99480.63;;;25.47;32.26
72465;BME280;60471;52.150;4.508;2022-09-28T12:00:37;99484.50;;;24.96;33.19
72465;BME280;60471;52.150;4.508;2022-09-28T12:03:20;99481.44;;;23.36;35.56
72465;BME280;60471;52.150;4.508;2022-09-28T12:05:59;99481.53;;;24.78;33.68
72465;BME280;60471;52.150;4.508;2022-09-28T12:08:40;99484.16;;;21.48;40.13
72465;BME280;60471;52.150;4.508;2022-09-28T12:13:53;99485.28;;;22.98;36.46
72465;BME280;60471;52.150;4.508;2022-09-28T12:16:27;99495.31;;;23.04;35.97
72465;BME280;60471;52.150;4.508;2022-09-28T12:19:19;99489.34;;;23.23;35.24
72465;BME280;60471;52.150;4.508;2022-09-28T12:21:55;99487.84;;;26.14;31.59
72465;BME280;60471;52.150;4.508;2022-09-28T12:24:36;99484.09;;;28.47;27.09
72465;BME280;60471;52.150;4.508;2022-09-28T12:27:15;99488.16;;;27.75;27.66
72465;BME280;60471;52.150;4.508;2022-09-28T12:30:21;99488.22;;;22.73;34.46
72465;BME280;60471;52.150;4.508;2022-09-28T12:33:02;99494.38;;;19.85;41.90
72465;BME280;60471;52.150;4.508;2022-09-28T12:45:17;99495.41;;;22.96;38.03
72465;BME280;60471;52.150;4.508;2022-09-28T12:48:32;99495.06;;;19.28;42.42
72465;BME280;60471;52.150;4.508;2022-09-28T12:57:40;99512.88;;;17.62;47.26
72465;BME280;60471;52.150;4.508;2022-09-28T13:00:17;99508.44;;;17.53;47.04
72465;BME280;60471;52.150;4.508;2022-09-28T13:06:28;99504.16;;;18.49;47.05
72465;BME280;60471;52.150;4.508;2022-09-28T13:09:22;99508.69;;;16.58;52.72
72465;BME280;60471;52.150;4.508;2022-09-28T13:23:26;99519.41;;;15.12;59.01
72465;BME280;60471;52.150;4.508;2022-09-28T13:29:08;99521.31;;;15.00;59.23
72465;BME280;60471;52.150;4.508;2022-09-28T13:31:50;99528.56;;;15.38;58.33
72465;BME280;60471;52.150;4.508;2022-09-28T13:34:28;99539.03;;;15.30;58.45
72465;BME280;60471;52.150;4.508;2022-09-28T13:45:21;99534.56;;;14.90;60.83
72465;BME280;60471;52.150;4.508;2022-09-28T13:48:12;99545.38;;;14.15;62.30
72465;BME280;60471;52.150;4.508;2022-09-28T13:50:59;99544.41;;;14.16;62.70
72465;BME280;60471;52.150;4.508;2022-09-28T13:57:18;99550.53;;;14.16;62.93
72465;BME280;60471;52.150;4.508;2022-09-28T14:02:52;99555.00;;;14.16;64.14
72465;BME280;60471;52.150;4.508;2022-09-28T14:16:33;99553.56;;;14.95;60.99
72465;BME280;60471;52.150;4.508;2022-09-28T14:22:03;99555.25;;;16.44;57.56
72465;BME280;60471;52.150;4.508;2022-09-28T14:24:54;99548.88;;;18.91;50.95
72465;BME280;60471;52.150;4.508;2022-09-28T14:30:55;99550.72;;;18.11;52.25
72465;BME280;60471;52.150;4.508;2022-09-28T14:33:28;99549.34;;;16.79;55.82
72465;BME280;60471;52.150;4.508;2022-09-28T14:36:01;99559.72;;;15.26;60.83
72465;BME280;60471;52.150;4.508;2022-09-28T14:38:35;99544.28;;;14.80;64.10
72465;BME280;60471;52.150;4.508;2022-09-28T14:41:31;99551.41;;;14.38;63.38
72465;BME280;60471;52.150;4.508;2022-09-28T14:44:10;99552.41;;;14.58;62.62
72465;BME280;60471;52.150;4.508;2022-09-28T14:46:42;99555.69;;;14.50;63.04
72465;BME280;60471;52.150;4.508;2022-09-28T14:54:25;99545.13;;;20.11;47.30
72465;BME280;60471;52.150;4.508;2022-09-28T14:57:10;99546.91;;;19.86;47.60
72465;BME280;60471;52.150;4.508;2022-09-28T14:59:45;99546.81;;;20.20;45.21
72465;BME280;60471;52.150;4.508;2022-09-28T15:02:22;99561.06;;;18.24;50.58
72465;BME280;60471;52.150;4.508;2022-09-28T15:04:53;99557.31;;;19.97;47.78
72465;BME280;60471;52.150;4.508;2022-09-28T15:07:29;99571.16;;;21.14;45.19
72465;BME280;60471;52.150;4.508;2022-09-28T15:10:21;99560.16;;;20.93;45.13
72465;BME280;60471;52.150;4.508;2022-09-28T15:21:37;99585.28;;;18.31;49.68
72465;BME280;60471;52.150;4.508;2022-09-28T15:24:24;99574.41;;;16.96;52.03
72465;BME280;60471;52.150;4.508;2022-09-28T15:27:16;99587.19;;;16.06;55.24
72465;BME280;60471;52.150;4.508;2022-09-28T15:32:25;99570.81;;;16.68;54.39
72465;BME280;60471;52.150;4.508;2022-09-28T15:34:54;99563.16;;;18.56;49.96
72465;BME280;60471;52.150;4.508;2022-09-28T15:37:24;99569.66;;;19.05;47.96
72465;BME280;60471;52.150;4.508;2022-09-28T15:39:55;99576.97;;;19.29;46.53
72465;BME280;60471;52.150;4.508;2022-09-28T15:42:23;99569.00;;;19.03;46.79
72465;BME280;60471;52.150;4.508;2022-09-28T15:45:02;99570.78;;;18.95;48.03
72465;BME280;60471;52.150;4.508;2022-09-28T15:47:32;99560.81;;;18.35;49.08
72465;BME280;60471;52.150;4.508;2022-09-28T15:50:02;99575.13;;;18.52;48.62
72465;BME280;60471;52.150;4.508;2022-09-28T15:55:27;99568.19;;;18.59;49.05
72465;BME280;60471;52.150;4.508;2022-09-28T16:00:40;99577.09;;;19.54;46.66
72465;BME280;60471;52.150;4.508;2022-09-28T16:06:07;99565.91;;;17.48;51.35
72465;BME280;60471;52.150;4.508;2022-09-28T16:11:11;99583.16;;;16.50;53.96
72465;BME280;60471;52.150;4.508;2022-09-28T16:14:01;99578.06;;;16.86;53.05
72465;BME280;60471;52.150;4.508;2022-09-28T16:16:37;99568.50;;;17.57;51.07
72465;BME280;60471;52.150;4.508;2022-09-28T16:19:35;99578.38;;;17.47;51.03
72465;BME280;60471;52.150;4.508;2022-09-28T16:22:19;99577.09;;;17.51;51.49
72465;BME280;60471;52.150;4.508;2022-09-28T16:24:56;99578.28;;;17.94;49.30
72465;BME280;60471;52.150;4.508;2022-09-28T16:27:49;99584.63;;;17.93;49.23
72465;BME280;60471;52.150;4.508;2022-09-28T16:30:24;99597.34;;;17.81;49.90